createdAt,value
2019-02-21T00:00:01.909Z,98114.00
2019-02-21T00:02:34.702Z,98113.00
2019-02-21T00:05:06.337Z,98111.00
2019-02-21T00:07:37.418Z,97965.00
2019-02-21T00:10:09.699Z,98111.00
2019-02-21T00:12:41.093Z,98109.00
2019-02-21T00:15:12.366Z,98118.00
2019-02-21T00:17:43.464Z,98114.00
2019-02-21T00:20:14.932Z,98130.00
2019-02-21T00:22:45.959Z,98122.00
2019-02-21T00:25:17.083Z,98126.00
2019-02-21T00:27:48.187Z,98143.00
2019-02-21T00:30:19.388Z,98131.00
2019-02-21T00:32:50.477Z,98115.00
2019-02-21T00:35:21.676Z,98122.00
2019-02-21T00:37:52.938Z,98119.00
2019-02-21T00:40:24.266Z,98117.00
2019-02-21T00:42:55.370Z,98125.00
2019-02-21T00:45:26.501Z,98126.00
2019-02-21T00:47:57.782Z,98134.00
2019-02-21T00:50:30.844Z,98132.00
2019-02-21T00:53:02.208Z,98135.00
2019-02-21T00:55:33.824Z,98130.00
2019-02-21T00:58:05.122Z,98131.00
2019-02-21T01:00:46.050Z,98139.00
2019-02-21T01:03:09.892Z,98151.00
2019-02-21T01:05:41.094Z,98137.00
2019-02-21T01:08:12.260Z,98144.00
2019-02-21T01:10:43.379Z,98147.00
2019-02-21T01:13:14.975Z,98148.00
2019-02-21T01:15:46.167Z,98137.00
2019-02-21T01:18:17.265Z,98144.00
2019-02-21T01:20:48.482Z,98143.00
2019-02-21T01:23:19.712Z,98144.00
2019-02-21T01:25:51.263Z,98139.00
2019-02-21T01:28:22.460Z,98138.00
2019-02-21T01:30:56.956Z,98140.00
2019-02-21T01:33:26.398Z,98148.00
2019-02-21T01:35:58.512Z,98133.00
2019-02-21T01:38:29.684Z,98146.00
2019-02-21T01:41:01.119Z,98132.00
2019-02-21T01:43:32.216Z,98132.00
2019-02-21T01:46:03.336Z,98132.00
2019-02-21T01:48:34.932Z,98138.00
2019-02-21T01:51:06.172Z,98124.00
2019-02-21T01:53:37.193Z,98122.00
2019-02-21T01:56:08.261Z,98128.00
2019-02-21T01:58:39.364Z,98129.00
2019-02-21T02:01:10.632Z,98129.00
2019-02-21T02:03:42.140Z,98127.00
2019-02-21T02:06:13.486Z,98124.00
2019-02-21T02:08:44.928Z,98124.00
2019-02-21T02:11:16.255Z,98128.00
2019-02-21T02:13:47.424Z,98128.00
2019-02-21T02:16:18.639Z,98127.00
2019-02-21T02:18:49.812Z,98118.00
2019-02-21T02:21:21.266Z,98127.00
2019-02-21T02:23:52.353Z,98119.00
2019-02-21T02:26:23.833Z,98123.00
2019-02-21T02:28:55.377Z,98122.00
2019-02-21T02:31:26.561Z,98112.00
2019-02-21T02:33:58.000Z,98114.00
2019-02-21T02:36:29.200Z,98114.00
2019-02-21T02:39:00.391Z,98121.00
2019-02-21T02:41:33.128Z,98126.00
2019-02-21T02:44:05.029Z,98120.00
2019-02-21T02:46:36.163Z,98112.00
2019-02-21T02:49:07.724Z,98124.00
2019-02-21T02:51:39.156Z,98113.00
2019-02-21T02:54:10.343Z,98119.00
2019-02-21T02:56:41.408Z,98122.00
2019-02-21T02:59:12.771Z,98103.00
2019-02-21T03:01:44.252Z,98101.00
2019-02-21T03:04:15.389Z,98092.00
2019-02-21T03:06:46.441Z,98101.00
2019-02-21T03:09:17.618Z,98109.00
2019-02-21T03:11:51.735Z,98112.00
2019-02-21T03:14:22.228Z,98111.00
2019-02-21T03:16:53.352Z,98115.00
2019-02-21T03:19:24.927Z,98114.00
2019-02-21T03:21:56.040Z,98113.00
2019-02-21T03:24:27.193Z,98117.00
2019-02-21T03:26:58.382Z,98104.00
2019-02-21T03:29:29.826Z,98108.00
2019-02-21T03:32:01.254Z,98104.00
2019-02-21T03:34:32.760Z,98098.00
2019-02-21T03:37:03.960Z,98100.00
2019-02-21T03:39:35.052Z,98105.00
2019-02-21T03:42:06.643Z,98107.00
2019-02-21T03:44:38.158Z,98082.00
2019-02-21T03:47:10.121Z,98087.00
2019-02-21T03:49:41.356Z,98093.00
2019-02-21T03:52:12.550Z,98097.00
2019-02-21T03:54:43.685Z,98086.00
2019-02-21T03:57:14.866Z,98092.00
2019-02-21T03:59:46.256Z,98089.00
2019-02-21T04:02:17.839Z,98089.00
2019-02-21T04:04:49.206Z,98117.00
2019-02-21T04:07:21.790Z,98100.00
2019-02-21T04:09:53.273Z,98108.00
2019-02-21T04:12:24.759Z,98101.00
2019-02-21T04:14:56.252Z,98103.00
2019-02-21T04:17:27.461Z,98104.00
2019-02-21T04:19:58.489Z,98112.00
2019-02-21T04:22:29.745Z,98100.00
2019-02-21T04:25:01.022Z,98099.00
2019-02-21T04:27:32.640Z,98098.00
2019-02-21T04:30:03.841Z,98105.00
2019-02-21T04:32:36.396Z,98118.00
2019-02-21T04:35:07.700Z,98105.00
2019-02-21T04:37:38.824Z,98108.00
2019-02-21T04:40:10.674Z,98108.00
2019-02-21T04:42:41.878Z,98108.00
2019-02-21T04:45:12.978Z,98107.00
2019-02-21T04:47:44.134Z,98104.00
2019-02-21T04:50:15.226Z,98103.00
2019-02-21T04:52:46.424Z,98114.00
2019-02-21T04:55:17.977Z,98109.00
2019-02-21T04:57:49.135Z,98107.00
2019-02-21T05:00:20.313Z,98110.00
2019-02-21T05:02:51.510Z,98112.00
2019-02-21T05:05:22.608Z,98099.00
2019-02-21T05:07:53.727Z,98099.00
2019-02-21T05:10:25.276Z,98118.00
2019-02-21T05:12:56.429Z,98106.00
2019-02-21T05:15:27.667Z,98109.00
2019-02-21T05:17:58.745Z,98108.00
2019-02-21T05:20:30.027Z,98104.00
2019-02-21T05:23:01.089Z,98102.00
2019-02-21T05:25:32.380Z,98110.00
2019-02-21T05:28:26.188Z,98113.00
2019-02-21T05:31:01.516Z,98097.00
2019-02-21T05:33:55.010Z,98107.00
2019-02-21T05:36:34.536Z,98115.00
2019-02-21T05:39:23.944Z,98116.00
2019-02-21T05:42:13.776Z,98118.00
2019-02-21T05:45:01.195Z,98103.00
2019-02-21T05:47:54.915Z,98129.00
2019-02-21T05:50:37.120Z,98107.00
2019-02-21T05:53:14.629Z,98115.00
2019-02-21T05:56:23.188Z,98126.00
2019-02-21T05:59:16.493Z,98127.00
2019-02-21T06:02:05.465Z,98127.00
2019-02-21T06:05:01.532Z,98117.00
2019-02-21T06:07:54.668Z,98125.00
2019-02-21T06:10:38.363Z,98121.00
2019-02-21T06:13:34.513Z,98124.00
2019-02-21T06:16:42.911Z,98137.00
2019-02-21T06:19:27.673Z,98136.00
2019-02-21T06:22:23.822Z,98137.00
2019-02-21T06:25:06.982Z,98127.00
2019-02-21T06:27:42.600Z,98137.00
2019-02-21T06:30:18.608Z,98155.00
2019-02-21T06:32:49.732Z,98142.00
2019-02-21T06:35:20.906Z,98147.00
2019-02-21T06:37:52.090Z,98151.00
2019-02-21T06:40:23.111Z,98151.00
2019-02-21T06:42:54.237Z,98147.00
2019-02-21T06:45:25.449Z,98135.00
2019-02-21T06:47:56.585Z,98139.00
2019-02-21T06:50:27.769Z,98146.00
2019-02-21T06:52:59.293Z,98144.00
2019-02-21T06:55:30.757Z,98138.00
2019-02-21T06:58:01.870Z,98134.00
2019-02-21T07:00:33.300Z,98147.00
2019-02-21T07:03:15.099Z,98150.00
2019-02-21T07:05:37.391Z,98138.00
2019-02-21T07:08:09.021Z,98143.00
2019-02-21T07:10:40.567Z,98139.00
2019-02-21T07:13:11.891Z,98146.00
2019-02-21T07:15:43.679Z,98139.00
2019-02-21T07:18:14.850Z,98151.00
2019-02-21T07:20:46.244Z,98151.00
2019-02-21T07:23:19.255Z,98155.00
2019-02-21T07:25:53.777Z,98164.00
2019-02-21T07:28:27.632Z,98158.00
2019-02-21T07:30:57.748Z,98162.00
2019-02-21T07:33:29.143Z,98157.00
2019-02-21T07:36:00.327Z,98150.00
2019-02-21T07:38:31.815Z,98157.00
2019-02-21T07:41:02.931Z,98153.00
2019-02-21T07:43:34.517Z,98161.00
2019-02-21T07:46:06.943Z,98168.00
2019-02-21T07:48:38.386Z,98171.00
2019-02-21T07:51:09.658Z,98159.00
2019-02-21T07:53:40.960Z,98165.00
2019-02-21T07:56:12.531Z,98175.00
2019-02-21T07:58:43.748Z,98172.00
2019-02-21T08:01:17.310Z,98172.00
2019-02-21T08:03:48.658Z,98171.00
2019-02-21T08:06:20.419Z,98174.00
2019-02-21T08:08:51.813Z,98175.00
2019-02-21T08:11:23.356Z,98174.00
2019-02-21T08:13:54.917Z,98169.00
2019-02-21T08:16:26.158Z,98179.00
2019-02-21T08:18:57.617Z,98179.00
2019-02-21T08:21:29.896Z,98183.00
2019-02-21T08:24:01.180Z,98187.00
2019-02-21T08:26:32.644Z,98181.00
2019-02-21T08:29:06.127Z,98190.00
2019-02-21T08:31:40.412Z,98198.00
2019-02-21T08:34:18.660Z,98201.00
2019-02-21T08:36:49.766Z,98204.00
2019-02-21T08:39:21.048Z,98195.00
2019-02-21T08:41:52.156Z,98210.00
2019-02-21T08:44:23.365Z,98190.00
2019-02-21T08:46:54.893Z,98196.00
2019-02-21T08:49:26.992Z,98192.00
2019-02-21T08:51:58.185Z,98197.00
2019-02-21T08:54:29.817Z,98201.00
2019-02-21T08:57:00.937Z,98208.00
2019-02-21T08:59:32.160Z,98214.00
2019-02-21T09:02:05.054Z,98219.00
2019-02-21T09:04:36.276Z,98221.00
2019-02-21T09:07:07.466Z,98210.00
2019-02-21T09:09:38.614Z,98207.00
2019-02-21T09:12:09.867Z,98197.00
2019-02-21T09:14:41.393Z,98208.00
2019-02-21T09:17:12.841Z,98229.00
2019-02-21T09:19:43.956Z,98201.00
2019-02-21T09:22:15.051Z,98203.00
2019-02-21T09:24:46.172Z,98204.00
2019-02-21T09:27:17.260Z,98202.00
2019-02-21T09:29:48.875Z,98208.00
2019-02-21T09:32:20.346Z,98205.00
2019-02-21T09:34:51.797Z,98208.00
2019-02-21T09:37:23.037Z,98204.00
2019-02-21T09:39:54.469Z,98216.00
2019-02-21T09:42:25.578Z,98210.00
2019-02-21T09:44:57.155Z,98207.00
2019-02-21T09:47:30.871Z,98200.00
2019-02-21T09:50:01.622Z,98210.00
2019-02-21T09:52:32.869Z,98202.00
2019-02-21T09:55:04.197Z,98209.00
2019-02-21T09:57:35.986Z,98204.00
2019-02-21T10:00:11.765Z,98191.00
2019-02-21T10:02:42.877Z,98201.00
2019-02-21T10:05:14.158Z,98197.00
2019-02-21T10:07:45.373Z,98209.00
2019-02-21T10:10:19.784Z,98201.00
2019-02-21T10:12:50.801Z,98196.00
2019-02-21T10:15:22.154Z,98196.00
2019-02-21T10:17:53.431Z,98203.00
2019-02-21T10:20:24.761Z,98199.00
2019-02-21T10:22:55.961Z,98200.00
2019-02-21T10:25:27.873Z,98199.00
2019-02-21T10:27:59.321Z,98213.00
2019-02-21T10:30:30.611Z,98211.00
2019-02-21T10:33:01.768Z,98203.00
2019-02-21T10:35:33.044Z,98194.00
2019-02-21T10:38:04.069Z,98180.00
2019-02-21T10:40:35.705Z,98196.00
2019-02-21T10:43:06.987Z,98174.00
2019-02-21T10:45:47.377Z,98199.00
2019-02-21T10:48:11.265Z,98190.00
2019-02-21T10:50:42.873Z,98177.00
2019-02-21T10:53:14.395Z,98185.00
2019-02-21T10:55:47.951Z,98174.00
2019-02-21T10:58:18.389Z,98172.00
2019-02-21T11:00:49.703Z,98186.00
2019-02-21T11:03:21.123Z,98178.00
2019-02-21T11:05:52.388Z,98175.00
2019-02-21T11:08:23.566Z,98178.00
2019-02-21T11:10:54.925Z,98178.00
2019-02-21T11:13:26.507Z,98194.00
2019-02-21T11:15:57.750Z,98182.00
2019-02-21T11:18:28.939Z,98182.00
2019-02-21T11:21:00.107Z,98190.00
2019-02-21T11:23:31.798Z,98180.00
2019-02-21T11:26:02.857Z,98180.00
2019-02-21T11:28:35.051Z,98176.00
2019-02-21T11:31:06.670Z,98177.00
2019-02-21T11:33:38.224Z,98172.00
2019-02-21T11:36:09.859Z,98170.00
2019-02-21T11:38:41.603Z,98177.00
2019-02-21T11:41:13.068Z,98177.00
2019-02-21T11:43:44.928Z,98176.00
2019-02-21T11:46:16.490Z,98171.00
2019-02-21T11:48:47.733Z,98171.00
2019-02-21T11:51:18.944Z,98164.00
2019-02-21T11:53:50.047Z,98156.00
2019-02-21T11:56:21.640Z,98171.00
2019-02-21T11:58:52.835Z,98166.00
2019-02-21T12:01:24.463Z,98172.00
2019-02-21T12:03:55.485Z,98160.00
2019-02-21T12:06:27.060Z,98169.00
2019-02-21T12:08:58.504Z,98160.00
2019-02-21T12:11:29.784Z,98161.00
2019-02-21T12:14:00.885Z,98163.00
2019-02-21T12:16:32.004Z,98161.00
2019-02-21T12:19:03.177Z,98158.00
2019-02-21T12:21:34.408Z,98153.00
2019-02-21T12:24:05.652Z,98164.00
2019-02-21T12:26:36.797Z,98156.00
2019-02-21T12:29:08.232Z,98152.00
2019-02-21T12:31:39.348Z,98154.00
2019-02-21T12:34:10.856Z,98158.00
2019-02-21T12:36:42.296Z,98159.00
2019-02-21T12:39:13.401Z,98143.00
2019-02-21T12:41:44.698Z,98148.00
2019-02-21T12:44:15.880Z,98140.00
2019-02-21T12:46:46.926Z,98133.00
2019-02-21T12:49:20.365Z,98138.00
2019-02-21T12:51:51.561Z,98133.00
2019-02-21T12:54:24.637Z,98134.00
2019-02-21T12:56:55.584Z,98126.00
2019-02-21T12:59:27.013Z,98129.00
2019-02-21T13:01:58.233Z,98123.00
2019-02-21T13:04:29.330Z,98133.00
2019-02-21T13:07:01.041Z,98125.00
2019-02-21T13:09:33.261Z,98120.00
2019-02-21T13:12:04.522Z,98119.00
2019-02-21T13:14:35.834Z,98107.00
2019-02-21T13:17:07.460Z,98119.00
2019-02-21T13:19:39.054Z,98114.00
2019-02-21T13:22:10.344Z,98106.00
2019-02-21T13:24:41.808Z,98108.00
2019-02-21T13:27:13.098Z,98121.00
2019-02-21T13:29:44.272Z,98106.00
2019-02-21T13:32:15.753Z,98110.00
2019-02-21T13:34:46.920Z,98113.00
2019-02-21T13:37:28.223Z,98113.00
2019-02-21T13:39:50.825Z,98114.00
2019-02-21T13:42:22.292Z,98109.00
2019-02-21T13:44:53.324Z,98120.00
2019-02-21T13:47:24.458Z,98118.00
2019-02-21T13:49:55.708Z,98116.00
2019-02-21T13:52:27.023Z,98109.00
2019-02-21T13:54:58.200Z,98106.00
2019-02-21T13:57:29.499Z,98122.00
2019-02-21T14:00:00.740Z,98123.00
2019-02-21T14:02:33.640Z,98119.00
2019-02-21T14:05:05.284Z,98114.00
2019-02-21T14:07:37.400Z,98108.00
2019-02-21T14:10:10.269Z,98105.00
2019-02-21T14:12:41.627Z,98120.00
2019-02-21T14:15:17.063Z,98123.00
2019-02-21T14:17:48.292Z,98113.00
2019-02-21T14:20:19.861Z,98115.00
2019-02-21T14:22:51.096Z,98120.00
2019-02-21T14:25:22.280Z,98121.00
2019-02-21T14:27:53.802Z,98119.00
2019-02-21T14:30:25.066Z,98120.00
2019-02-21T14:32:56.313Z,98118.00
2019-02-21T14:35:27.898Z,98118.00
2019-02-21T14:37:59.594Z,98117.00
2019-02-21T14:40:31.048Z,98117.00
2019-02-21T14:43:02.605Z,98118.00
2019-02-21T14:45:34.859Z,98135.00
2019-02-21T14:48:06.081Z,98130.00
2019-02-21T14:50:37.638Z,98130.00
2019-02-21T14:53:08.867Z,98135.00
2019-02-21T14:55:40.042Z,98133.00
2019-02-21T14:58:11.499Z,98127.00
2019-02-21T15:00:42.947Z,98129.00
2019-02-21T15:03:21.524Z,98126.00
2019-02-21T15:05:47.079Z,98125.00
2019-02-21T15:08:22.182Z,98127.00
2019-02-21T15:10:53.488Z,98119.00
2019-02-21T15:13:25.789Z,98125.00
2019-02-21T15:15:57.356Z,98119.00
2019-02-21T15:18:28.589Z,98117.00
2019-02-21T15:20:59.768Z,98126.00
2019-02-21T15:23:31.646Z,98133.00
2019-02-21T15:26:03.669Z,98118.00
2019-02-21T15:28:34.815Z,98126.00
2019-02-21T15:31:05.992Z,98119.00
2019-02-21T15:33:37.138Z,98124.00
2019-02-21T15:36:08.170Z,98125.00
2019-02-21T15:38:40.273Z,98126.00
2019-02-21T15:41:12.147Z,98130.00
2019-02-21T15:43:43.521Z,98126.00
2019-02-21T15:46:14.629Z,98126.00
2019-02-21T15:48:46.893Z,98114.00
2019-02-21T15:51:18.495Z,98117.00
2019-02-21T15:53:49.606Z,98118.00
2019-02-21T15:56:20.689Z,98125.00
2019-02-21T15:58:52.099Z,98126.00
2019-02-21T16:01:23.155Z,98127.00
2019-02-21T16:03:54.305Z,98125.00
2019-02-21T16:06:25.406Z,98123.00
2019-02-21T16:08:56.558Z,98126.00
2019-02-21T16:11:28.062Z,98130.00
2019-02-21T16:14:03.329Z,98143.00
2019-02-21T16:16:32.304Z,98151.00
2019-02-21T16:19:03.564Z,98145.00
2019-02-21T16:21:34.693Z,98148.00
2019-02-21T16:24:06.130Z,98146.00
2019-02-21T16:26:37.302Z,98144.00
2019-02-21T16:29:08.463Z,98149.00
2019-02-21T16:31:39.968Z,98151.00
2019-02-21T16:34:11.120Z,98156.00
2019-02-21T16:36:42.563Z,98152.00
2019-02-21T16:39:14.264Z,98156.00
2019-02-21T16:41:45.496Z,98160.00
2019-02-21T16:44:16.808Z,98157.00
2019-02-21T16:46:48.357Z,98153.00
2019-02-21T16:49:19.730Z,98158.00
2019-02-21T16:51:51.359Z,98156.00
2019-02-21T16:54:22.483Z,98163.00
2019-02-21T16:56:54.159Z,98160.00
2019-02-21T16:59:25.377Z,98166.00
2019-02-21T17:01:56.447Z,98166.00
2019-02-21T17:04:27.672Z,98156.00
2019-02-21T17:06:59.809Z,98170.00
2019-02-21T17:09:31.092Z,98169.00
2019-02-21T17:12:02.223Z,98170.00
2019-02-21T17:14:33.387Z,98177.00
2019-02-21T17:17:05.595Z,98179.00
2019-02-21T17:19:36.736Z,98177.00
2019-02-21T17:22:08.199Z,98180.00
2019-02-21T17:24:39.429Z,98188.00
2019-02-21T17:27:10.694Z,98193.00
2019-02-21T17:29:42.085Z,98187.00
2019-02-21T17:32:13.640Z,98189.00
2019-02-21T17:34:45.195Z,98189.00
2019-02-21T17:37:24.711Z,98183.00
2019-02-21T17:39:49.461Z,98192.00
2019-02-21T17:42:20.830Z,98197.00
2019-02-21T17:44:52.632Z,98200.00
2019-02-21T17:47:23.898Z,98194.00
2019-02-21T17:49:55.193Z,98200.00
2019-02-21T17:52:26.673Z,98202.00
2019-02-21T17:54:57.977Z,98202.00
2019-02-21T17:57:29.472Z,98203.00
2019-02-21T18:00:01.043Z,98197.00
2019-02-21T18:02:32.297Z,98201.00
2019-02-21T18:05:04.075Z,98198.00
2019-02-21T18:07:36.617Z,98190.00
2019-02-21T18:10:11.454Z,98197.00
2019-02-21T18:12:44.509Z,98197.00
2019-02-21T18:15:16.843Z,98182.00
2019-02-21T18:17:48.455Z,98191.00
2019-02-21T18:20:19.746Z,98195.00
2019-02-21T18:22:51.068Z,98165.00
2019-02-21T18:25:37.142Z,98178.00
2019-02-21T18:28:08.432Z,98185.00
2019-02-21T18:30:39.920Z,98183.00
2019-02-21T18:33:11.095Z,98185.00
2019-02-21T18:35:42.664Z,98192.00
2019-02-21T18:38:13.928Z,98187.00
2019-02-21T18:40:45.324Z,98193.00
2019-02-21T18:43:16.460Z,98178.00
2019-02-21T18:45:47.807Z,98180.00
2019-02-21T18:48:19.395Z,98168.00
2019-02-21T18:50:50.708Z,98172.00
2019-02-21T18:53:21.885Z,98162.00
2019-02-21T18:55:53.677Z,98161.00
2019-02-21T18:58:24.860Z,98165.00
2019-02-21T19:00:56.099Z,98165.00
2019-02-21T19:03:27.961Z,98173.00
2019-02-21T19:05:59.247Z,98169.00
2019-02-21T19:08:31.784Z,98174.00
2019-02-21T19:11:03.076Z,98180.00
2019-02-21T19:13:35.680Z,98179.00
2019-02-21T19:16:06.880Z,98176.00
2019-02-21T19:18:38.114Z,98179.00
2019-02-21T19:21:09.893Z,98177.00
2019-02-21T19:23:41.734Z,98175.00
2019-02-21T19:26:13.028Z,98184.00
2019-02-21T19:28:44.289Z,98176.00
2019-02-21T19:31:19.288Z,98176.00
2019-02-21T19:33:50.846Z,98176.00
2019-02-21T19:36:22.534Z,98181.00
2019-02-21T19:38:54.072Z,98182.00
2019-02-21T19:41:25.321Z,98185.00
2019-02-21T19:44:08.105Z,98192.00
2019-02-21T19:46:30.008Z,98177.00
2019-02-21T19:49:01.148Z,98188.00
2019-02-21T19:51:33.914Z,98201.00
2019-02-21T19:54:05.160Z,98193.00
2019-02-21T19:56:36.812Z,98190.00
2019-02-21T19:59:08.367Z,98193.00
2019-02-21T20:01:41.219Z,98187.00
2019-02-21T20:04:12.807Z,98196.00
2019-02-21T20:06:44.084Z,98187.00
2019-02-21T20:09:16.837Z,98199.00
2019-02-21T20:11:48.365Z,98201.00
2019-02-21T20:14:19.664Z,98206.00
2019-02-21T20:16:51.169Z,98201.00
2019-02-21T20:19:22.629Z,98201.00
2019-02-21T20:21:54.634Z,98197.00
2019-02-21T20:24:26.460Z,98189.00
2019-02-21T20:27:00.167Z,98193.00
2019-02-21T20:29:30.479Z,98192.00
2019-02-21T20:32:01.705Z,98193.00
2019-02-21T20:34:33.071Z,98194.00
2019-02-21T20:37:04.330Z,98195.00
2019-02-21T20:39:35.661Z,98193.00
2019-02-21T20:42:07.084Z,98185.00
2019-02-21T20:44:38.716Z,98190.00
2019-02-21T20:47:10.004Z,98190.00
2019-02-21T20:49:41.164Z,98195.00
2019-02-21T20:52:12.539Z,98186.00
2019-02-21T20:54:44.747Z,98186.00
2019-02-21T20:57:16.399Z,98195.00
2019-02-21T20:59:47.909Z,98196.00
2019-02-21T21:02:19.185Z,98199.00
2019-02-21T21:04:50.876Z,98193.00
2019-02-21T21:07:25.182Z,98193.00
2019-02-21T21:09:55.416Z,98205.00
2019-02-21T21:12:26.982Z,98192.00
2019-02-21T21:14:58.078Z,98199.00
2019-02-21T21:17:29.220Z,98190.00
2019-02-21T21:20:00.328Z,98208.00
2019-02-21T21:22:31.953Z,98192.00
2019-02-21T21:25:03.207Z,98197.00
2019-02-21T21:27:35.399Z,98202.00
2019-02-21T21:30:10.317Z,98200.00
2019-02-21T21:32:43.144Z,98198.00
2019-02-21T21:35:14.837Z,98203.00
2019-02-21T21:37:46.012Z,98204.00
2019-02-21T21:40:17.837Z,98201.00
2019-02-21T21:42:49.427Z,98198.00
2019-02-21T21:45:21.048Z,98202.00
2019-02-21T21:47:52.256Z,98203.00
2019-02-21T21:50:23.861Z,98201.00
2019-02-21T21:52:54.994Z,98200.00
2019-02-21T21:55:26.250Z,98204.00
2019-02-21T21:57:57.755Z,98213.00
2019-02-21T22:00:29.334Z,98209.00
2019-02-21T22:03:00.617Z,98222.00
2019-02-21T22:05:31.887Z,98212.00
2019-02-21T22:08:03.189Z,98218.00
2019-02-21T22:10:34.696Z,98210.00
2019-02-21T22:13:05.901Z,98207.00
2019-02-21T22:15:37.107Z,98205.00
2019-02-21T22:18:08.461Z,98213.00
2019-02-21T22:20:39.514Z,98212.00
2019-02-21T22:23:10.632Z,98208.00
2019-02-21T22:25:41.817Z,98202.00
2019-02-21T22:28:12.987Z,98209.00
2019-02-21T22:30:44.201Z,98201.00
2019-02-21T22:33:15.731Z,98189.00
2019-02-21T22:35:47.014Z,98202.00
2019-02-21T22:38:18.188Z,98207.00
2019-02-21T22:40:49.237Z,98208.00
2019-02-21T22:43:20.492Z,98210.00
2019-02-21T22:45:52.266Z,98216.00
2019-02-21T22:48:23.703Z,98207.00
2019-02-21T22:50:55.192Z,98203.00
2019-02-21T22:53:26.375Z,98202.00
2019-02-21T22:55:57.428Z,98199.00
2019-02-21T22:58:28.604Z,98206.00
2019-02-21T23:01:31.896Z,98203.00
2019-02-21T23:04:30.546Z,98207.00
2019-02-21T23:07:39.922Z,98219.00
2019-02-21T23:10:11.100Z,98214.00
2019-02-21T23:12:42.292Z,98216.00
2019-02-21T23:15:15.385Z,98208.00
2019-02-21T23:17:46.517Z,98210.00
2019-02-21T23:20:17.728Z,98217.00
2019-02-21T23:22:48.930Z,98217.00
2019-02-21T23:25:20.021Z,98214.00
2019-02-21T23:27:51.296Z,98211.00
2019-02-21T23:30:23.928Z,98205.00
2019-02-21T23:32:55.309Z,98211.00
2019-02-21T23:35:27.205Z,98207.00
2019-02-21T23:37:58.330Z,98212.00
2019-02-21T23:40:30.585Z,98214.00
2019-02-21T23:43:01.870Z,98206.00
2019-02-21T23:45:33.317Z,98202.00
2019-02-21T23:48:06.144Z,98201.00
2019-02-21T23:50:37.845Z,98207.00
2019-02-21T23:53:08.979Z,98207.00
2019-02-21T23:55:40.041Z,98202.00
2019-02-21T23:58:11.245Z,98202.00
